Terminal Aerodrome Forecast
Issued by NWS Mobile, AL

Home | Current Version | Previous Version | Text Only | Print | Product List | Glossary On
Versions: 1 2 3 4 5 6 7 8 9 10 11 12 13 14 15 16 17 18 19 20 21 22 23 24 25
000
FTUS44 KMOB 292300
TAFPNS
TAF
KPNS 292340Z 3000/3024 18012KT P6SM VCTS SCT015CB BKN040 OVC150
     FM300100 16006KT P6SM VCTS SCT030CB BKN100 OVC200
     FM301500 17013KT P6SM VCTS SCT040CB BKN120 BKN250 PROB30
      3016/3022 4SM TSRA BKN030CB=

USA.gov is the U.S. government's official web portal to all federal, state and local government web resources and services.